Latest Coastal Weather Observations for Neptune Island

IDS60701

Issued at 7:43 pm CDT Wednesday 28 January 2015 (issued every 10 minutes, with the page automatically refreshed every 10 minutes)

About coastal observations | Map of coastal stations | Coastal observations for SA | Marine services | Other Formats
Station Details ID: 018115 Name: NEPTUNE ISLAND Lat: -35.34 Lon: 136.12 Height: 32.0 m
Data from the previous 72 hours. | See also: Recent months at Neptune Island
Date/Time
CDT
Temp

°C
Wind Pressure Rain
since 9am
mm
Weather Cloud Vis
km
Sea
Height
m
Swell
Dir
 
Speed
knots
Gust
knots
hPa Trend Height
m
Period
s
Dir
28/07:30pm 18.0 SSE 25 31 1017.3 - 0.0 - - - - - - -
28/07:00pm 18.1 SSE 25 31 1017.1 - 0.0 - - - - - - -
28/06:30pm 18.5 SSE 26 32 1017.3 - 0.0 - - - - - - -
28/06:00pm 18.9 SSE 24 30 1017.5 - 0.0 - - - - - - -
28/05:30pm 18.9 SSE 25 30 1017.6 - 0.0 - - - - - - -
28/05:00pm 19.1 SSE 25 31 1017.6 - 0.0 - - - - - - -
28/04:30pm 19.7 SSE 25 30 1017.6 - 0.0 - - - - - - -
28/04:00pm 19.8 SSE 25 30 1017.8 - 0.0 - - - - - - -
28/03:30pm 20.2 SSE 20 24 1018.2 - 0.0 - - - - - - -
28/03:00pm 20.9 SSE 18 23 1018.4 - 0.0 - - - - - - -
28/02:30pm 21.1 SSE 17 21 1018.7 - 0.0 - - - - - - -
28/02:00pm 21.7 SE 17 20 1019.1 - 0.0 - - - - - - -
28/01:30pm 20.5 ESE 12 14 1019.5 - 0.0 - - - - - - -
28/01:00pm 21.2 ESE 15 17 1019.6 - 0.0 - - - - - - -
28/12:30pm 20.9 ESE 15 18 1019.6 - 0.0 - - - - - - -
28/12:00pm 20.5 ESE 14 17 1019.8 - 0.0 - - - - - - -
28/11:30am 19.2 ESE 18 21 1019.6 - 0.0 - - - - - - -
28/11:00am 18.8 ESE 17 20 1019.7 - 0.0 - - - - - - -
28/10:30am 18.7 ESE 17 21 1020.0 - 0.0 - - - - - - -
28/10:00am 17.8 ESE 20 24 1019.7 - 0.0 - - - - - - -
28/09:30am 17.4 ESE 19 23 1019.6 - 0.0 - - - - - - -
28/09:00am 17.9 ESE 20 25 1019.4 - 0.0 - - - - - - -
28/08:30am 16.8 ESE 20 24 1019.2 - 0.0 - - - - - - -
28/08:00am 16.3 ESE 19 23 1018.8 - 0.0 - - - - - - -
28/07:30am 16.3 ESE 21 26 1018.3 - 0.0 - - - - - - -
28/07:00am 16.2 ESE 20 24 1018.2 - 0.0 - - - - - - -
28/06:30am 16.0 ESE 19 23 1018.0 - 0.0 - - - - - - -
28/06:00am 16.0 ESE 19 23 1017.7 - 0.0 - - - - - - -
28/05:30am 16.0 ESE 18 23 1017.4 - 0.0 - - - - - - -
28/05:00am 15.9 ESE 19 24 1017.1 - 0.0 - - - - - - -
28/04:30am 15.8 ESE 21 26 1017.0 - 0.0 - - - - - - -
28/04:00am 16.0 ESE 21 25 1017.0 - 0.0 - - - - - - -
28/03:30am 15.8 ESE 22 26 1017.1 - 0.0 - - - - - - -
28/03:00am 15.8 ESE 21 25 1017.4 - 0.0 - - - - - - -
28/02:30am 16.2 SE 20 26 1017.7 - 0.0 - - - - - - -
28/02:00am 16.1 ESE 20 25 1018.0 - 0.0 - - - - - - -
28/01:30am 16.3 ESE 19 23 1018.5 - 0.0 - - - - - - -
28/01:00am 16.3 SE 21 25 1018.7 - 0.0 - - - - - - -
28/12:30am 16.2 SE 19 24 1018.9 - 0.0 - - - - - - -
28/12:00am 16.3 SE 18 23 1019.2 - 0.0 - - - - - - -
 
Date/Time
CDT
Temp

°C
Wind Pressure Rain
since 9am
mm
Weather Cloud Vis
km
Sea
Height
m
Swell
Dir
 
Speed
knots
Gust
knots
hPa Trend Height
m
Period
s
Dir
27/11:30pm 16.0 ESE 19 24 1019.3 - 0.0 - - - - - - -
27/11:00pm 16.1 SE 19 24 1019.5 - 0.0 - - - - - - -
27/10:30pm 16.0 ESE 21 26 1019.4 - 0.0 - - - - - - -
27/10:29pm 16.0 ESE 21 26 1019.4 - 0.0 - - - - - - -
27/10:00pm 16.4 SE 14 18 1019.7 - 0.0 - - - - - - -
27/09:38pm 16.4 SE 17 27 1019.6 - 0.0 - - - - - - -
27/09:30pm 15.9 SSE 21 27 1019.4 - 0.0 - - - - - - -
27/09:00pm 16.5 SE 20 25 1019.3 - 0.0 - - - - - - -
27/08:30pm 16.6 SSE 21 26 1019.0 - 0.0 - - - - - - -
27/08:00pm 17.0 SSE 22 26 1018.7 - 0.0 - - - - - - -
27/07:30pm 17.0 SSE 20 25 1018.5 - 0.0 - - - - - - -
27/07:00pm 17.6 SSE 21 25 1018.3 - 0.0 - - - - - - -
27/06:30pm 17.6 SSE 20 25 1018.0 - 0.0 - - - - - - -
27/06:00pm 17.7 SSE 23 27 1018.0 - 0.0 - - - - - - -
27/05:30pm 18.1 S 24 27 1017.9 - 0.0 - - - - - - -
27/05:00pm 18.4 SSE 21 25 1018.1 - 0.0 - - - - - - -
27/04:30pm 18.7 SSE 20 24 1018.0 - 0.0 - - - - - - -
27/04:00pm 19.1 SSE 22 26 1017.9 - 0.0 - - - - - - -
27/03:30pm 18.8 SSE 21 25 1018.1 - 0.0 - - - - - - -
27/03:00pm 19.0 SSE 19 25 1018.2 - 0.0 - - - - - - -
27/02:30pm 18.8 SSE 19 24 1018.3 - 0.0 - - - - - - -
27/02:00pm 19.4 SSE 16 21 1018.4 - 0.0 - - - - - - -
27/01:30pm 19.6 SSE 15 18 1018.8 - 0.0 - - - - - - -
27/01:00pm 19.5 SSE 13 17 1019.1 - 0.0 - - - - - - -
27/12:30pm 18.7 SSE 13 17 1019.1 - 0.0 - - - - - - -
27/12:00pm 19.8 SSE 11 16 1019.4 - 0.0 - - - - - - -
27/11:30am 19.8 SE 12 16 1019.4 - 0.0 - - - - - - -
27/11:00am 20.7 SE 10 13 1019.4 - 0.0 - - - - - - -
27/10:30am 19.7 SE 11 15 1019.3 - 0.0 - - - - - - -
27/10:00am 18.5 SE 11 13 1019.2 - 0.0 - - - - - - -
27/09:30am 17.4 SSE 12 16 1019.5 - 0.0 - - - - - - -
27/09:00am 18.0 SSE 12 14 1019.5 - 0.0 - - - - - - -
27/08:30am 17.3 SE 13 16 1019.3 - 0.0 - - - - - - -
27/08:00am 17.5 SE 15 19 1019.0 - 0.0 - - - - - - -
27/07:30am 16.0 SE 14 17 1018.8 - 0.0 - - - - - - -
27/07:00am 15.8 ESE 14 17 1018.6 - 0.0 - - - - - - -
27/06:30am 15.9 SE 15 19 1018.3 - 0.0 - - - - - - -
27/06:00am 15.9 SE 14 18 1017.9 - 0.0 - - - - - - -
27/05:30am 15.8 ESE 15 19 1017.8 - 0.0 - - - - - - -
27/05:00am 15.9 SE 14 17 1017.6 - 0.0 - - - - - - -
27/04:30am 15.9 SE 14 17 1017.7 - 0.0 - - - - - - -
27/04:00am 15.7 SE 14 18 1017.7 - 0.0 - - - - - - -
27/03:30am 15.8 SE 14 17 1017.7 - 0.0 - - - - - - -
27/03:00am 15.9 SE 14 18 1017.9 - 0.0 - - - - - - -
27/02:30am 15.7 ESE 13 16 1018.2 - 0.0 - - - - - - -
27/02:00am 15.8 SE 14 18 1018.4 - 0.0 - - - - - - -
27/01:30am 16.1 SE 14 18 1018.7 - 0.0 - - - - - - -
27/01:00am 16.0 SSE 16 19 1018.8 - 0.0 - - - - - - -
27/12:30am 15.9 SE 15 19 1018.9 - 0.0 - - - - - - -
27/12:00am 15.8 SSE 15 19 1018.9 - 0.0 - - - - - - -
 
Date/Time
CDT
Temp

°C
Wind Pressure Rain
since 9am
mm
Weather Cloud Vis
km
Sea
Height
m
Swell
Dir
 
Speed
knots
Gust
knots
hPa Trend Height
m
Period
s
Dir
26/11:30pm 15.9 SE 16 21 1018.8 - 0.0 - - - - - - -
26/11:00pm 16.0 SSE 17 21 1019.0 - 0.0 - - - - - - -
26/10:30pm 15.9 SE 15 24 1019.2 - 0.0 - - - - - - -
26/10:00pm 16.0 SSE 15 19 1019.1 - 0.0 - - - - - - -
26/09:30pm 16.1 SSE 16 20 1018.8 - 0.0 - - - - - - -
26/09:00pm 16.3 SSE 16 20 1018.7 - 0.0 - - - - - - -
26/08:30pm 16.4 SSE 17 21 1018.6 - 0.0 - - - - - - -
26/08:00pm 16.7 SSE 17 21 1018.3 - 0.0 - - - - - - -
26/07:30pm 16.9 S 16 20 1018.5 - 0.0 - - - - - - -
26/07:00pm 16.9 S 17 19 1018.5 - 0.0 - - - - - - -
26/06:30pm 17.3 S 17 21 1018.2 - 0.0 - - - - - - -
26/06:00pm 16.8 S 16 20 1018.2 - 0.0 - - - - - - -
26/05:30pm 17.9 S 15 18 1018.3 - 0.0 - - - - - - -
26/05:00pm 18.1 S 15 19 1018.3 - 0.0 - - - - - - -
26/04:30pm 19.3 S 13 16 1018.3 - 0.0 - - - - - - -
26/04:00pm 18.1 S 14 18 1018.4 - 0.0 - - - - - - -
26/03:30pm 18.6 SSE 14 17 1018.3 - 0.0 - - - - - - -
26/03:00pm 19.3 S 15 19 1018.5 - 0.0 - - - - - - -
26/02:30pm 18.9 S 14 18 1018.6 - 0.0 - - - - - - -
26/02:00pm 18.4 S 15 18 1018.7 - 0.0 - - - - - - -
26/01:30pm 19.1 S 13 15 1018.9 - 0.0 - - - - - - -
26/01:00pm 17.6 S 11 13 1019.1 - 0.0 - - - - - - -
26/12:30pm 17.1 SSE 12 15 1019.0 - 0.0 - - - - - - -
26/12:00pm 17.6 SSE 14 18 1018.9 - 0.0 - - - - - - -
26/11:30am 18.2 S 14 17 1018.9 - 0.0 - - - - - - -
26/11:00am 16.6 S 15 18 1018.9 - 0.0 - - - - - - -
26/10:30am 16.5 S 14 19 1018.8 - 0.0 - - - - - - -
26/10:00am 18.3 S 13 15 1019.1 - 0.0 - - - - - - -
26/09:30am 17.0 S 12 15 1019.0 - 0.0 - - - - - - -
26/09:00am 16.8 S 13 15 1018.9 - 0.0 - - - - - - -
26/08:30am 16.4 S 11 17 1018.9 - 0.0 - - - - - - -
26/08:00am 16.2 S 13 16 1018.5 - 0.0 - - - - - - -
26/07:30am 16.0 SSE 13 16 1018.2 - 0.0 - - - - - - -
26/07:00am 15.9 SSE 14 18 1017.9 - 0.0 - - - - - - -
26/06:30am 15.9 SSE 13 16 1017.8 - 0.0 - - - - - - -
26/06:00am 15.9 SSE 12 15 1017.4 - 0.0 - - - - - - -
26/05:30am 15.6 SSE 10 13 1017.2 - 0.0 - - - - - - -
26/05:00am 15.5 SE 11 13 1017.0 - 0.0 - - - - - - -
26/04:30am 15.9 S 15 19 1016.6 - 0.0 - - - - - - -
26/04:00am 15.6 SSE 13 16 1016.6 - 0.0 - - - - - - -
26/03:30am 15.7 SSE 12 15 1016.5 - 0.0 - - - - - - -
26/03:00am 15.8 SSE 12 16 1016.3 - 0.0 - - - - - - -
26/02:30am 16.1 SSE 14 16 1016.5 - 0.0 - - - - - - -
26/02:00am 15.9 S 13 17 1016.6 - 0.0 - - - - - - -
26/01:30am 16.0 S 16 19 1016.6 - 0.0 - - - - - - -
26/01:00am 16.0 S 17 20 1016.7 - 0.0 - - - - - - -
26/12:30am 16.1 SSE 10 15 1017.0 - 0.0 - - - - - - -
26/12:00am 16.0 S 18 21 1017.0 - 0.0 - - - - - - -
 
Date/Time
CDT
Temp

°C
Wind Pressure Rain
since 9am
mm
Weather Cloud Vis
km
Sea
Height
m
Swell
Dir
 
Speed
knots
Gust
knots
hPa Trend Height
m
Period
s
Dir
25/11:30pm 16.3 S 15 19 1017.2 - 0.0 - - - - - - -
25/11:00pm 16.0 S 17 21 1017.1 - 0.0 - - - - - - -
25/10:30pm 16.2 S 15 19 1017.0 - 0.0 - - - - - - -
25/10:00pm 16.3 SSW 16 19 1016.7 - 0.0 - - - - - - -
25/09:30pm 16.1 SSW 17 20 1016.5 - 0.0 - - - - - - -
25/09:00pm 16.1 SSW 17 21 1016.3 - 0.0 - - - - - - -
25/08:30pm 16.2 SSW 20 24 1016.0 - 0.0 - - - - - - -
25/08:00pm 16.5 SSW 19 24 1015.8 - 0.0 - - - - - - -

Other Formats:

Comma delimited format used in spreadsheet applications
http://www.bom.gov.au/fwo/IDS60701/IDS60701.94804.axf

JavaScript Object Notation format (JSON) in row-major order
http://www.bom.gov.au/fwo/IDS60701/IDS60701.94804.json